Mebul, Australia

9:12 AM AEDT on January 21, 2017 (GMT +1100)
Yarrawonga | | Change Station

Elev 1877 ft 32.34 °S, 149.68 °E | Updated 2 minutes ago

Clear
Clear
67.1 °F
Feels Like 67.1 °F
N
1.0
Wind Variable Wind from West
Gusts 4.0 mph

Today
High -- | Low -- °F
--% Chance of Precip.
Yesterday
High -- | Low -- °F
Precip. -- in
Pressure 29.83 in
Visibility 6.2 miles
Clouds Mostly Cloudy 1800 ft
Dew Point 64 °F
Humidity 90%
Rainfall 0.00 in
Snow Depth Not available.
6:16 AM 8:11 PM
Last Quarter, 41% visible
SPECI YMDG 202200Z AUTO 11003KT 9999 // BKN018 21/17 Q1010
Pressure 29.83 in
Visibility 6.2 miles
Clouds Mostly Cloudy 1800 ft
Dew Point 64 °F
Humidity 90%
Rainfall 0.00 in
Snow Depth Not available.
6:16 AM 8:11 PM
Last Quarter, 41% visible
SPECI YMDG 202200Z AUTO 11003KT 9999 // BKN018 21/17 Q1010

Get Your Daily Forecast Email!

Thanks for signing up!

Be on the lookout for a verification email in your inbox.

You'll start receiving the daily forecast at 8 AM.

×

10-Day Weather Forecast

×

Almanac

Astronomy

Jan. 21, 2017 Rise Set
Actual Time
Civil Twilight
Nautical Twilight
Astronomical Twilight
Moon
Length of Visible Light
Length of Day
Tomorrow will be .
, % of the Moon is Illuminated

Today's Extremes

Country Highs Country Lows

Community

WunderPhotos

Upload Photos

1,962,540 photos uploaded!

WunderBlog® & News

Nearby

Air Quality

  Air Quality AQ Index Pollutant
Not available.

Snow Depth

Station Depth Elevation

Earthquake Activity

City Distance Mag. Time & Date
Minimum magnitude displayed is 2.5.

Coastal Water Temperatures

Place Temperature

Stations

Nearby Weather Stations

Station Location Temp. Windchill Dew Point Humidity Wind Precip. Elev Updated Type